Terminal Aerodrome Forecast
Issued by NWS Sterling, VA

Home | Current Version | Previous Version | Text Only | Print | Product List | Glossary On
Versions: 1 2 3 4 5 6 7 8 9 10 11 12 13 14 15 16 17 18 19 20 21 22 23
600
FTUS41 KLWX 281440 AAA
TAFBWI
TAF AMD
KBWI 281440Z 2815/0118 17006KT P6SM SCT250
     FM282100 16009KT 6SM -SHRA OVC070
     FM010000 20007KT 4SM -SHRA BR OVC025
     FM010600 21009KT 6SM BR BKN010 OVC025
     FM011200 21011G18KT 4SM -SHRA BR BKN010 OVC025
     FM011500 22014G23KT P6SM SCT025 OVC035=

USA.gov is the U.S. government's official web portal to all federal, state and local government web resources and services.